sensor_id;sensor_type;location;lat;lon;timestamp;P1;durP1;ratioP1;P2;durP2;ratioP2
33836;SDS011;20140;49.356;8.812;2023-10-19T00:01:56;16.40;;;10.80;;
33836;SDS011;20140;49.356;8.812;2023-10-19T00:04:23;15.32;;;10.95;;
33836;SDS011;20140;49.356;8.812;2023-10-19T00:06:49;15.60;;;10.17;;
33836;SDS011;20140;49.356;8.812;2023-10-19T00:09:15;17.50;;;11.80;;
33836;SDS011;20140;49.356;8.812;2023-10-19T00:11:41;14.73;;;10.50;;
33836;SDS011;20140;49.356;8.812;2023-10-19T00:14:07;12.05;;;9.45;;
33836;SDS011;20140;49.356;8.812;2023-10-19T00:16:40;13.55;;;10.25;;
33836;SDS011;20140;49.356;8.812;2023-10-19T00:19:09;14.25;;;9.70;;
33836;SDS011;20140;49.356;8.812;2023-10-19T00:21:35;16.92;;;10.43;;
33836;SDS011;20140;49.356;8.812;2023-10-19T00:24:15;14.82;;;10.27;;
33836;SDS011;20140;49.356;8.812;2023-10-19T00:26:42;15.88;;;9.43;;
33836;SDS011;20140;49.356;8.812;2023-10-19T00:29:09;14.18;;;9.43;;
33836;SDS011;20140;49.356;8.812;2023-10-19T00:31:53;16.20;;;10.10;;
33836;SDS011;20140;49.356;8.812;2023-10-19T00:34:21;15.50;;;9.77;;
33836;SDS011;20140;49.356;8.812;2023-10-19T00:36:47;15.60;;;10.87;;
33836;SDS011;20140;49.356;8.812;2023-10-19T00:39:13;16.70;;;10.48;;
33836;SDS011;20140;49.356;8.812;2023-10-19T00:41:52;13.35;;;9.48;;
33836;SDS011;20140;49.356;8.812;2023-10-19T00:44:22;15.75;;;9.43;;
33836;SDS011;20140;49.356;8.812;2023-10-19T00:46:54;15.63;;;10.15;;
33836;SDS011;20140;49.356;8.812;2023-10-19T00:49:28;14.10;;;9.32;;
33836;SDS011;20140;49.356;8.812;2023-10-19T00:51:55;18.37;;;9.67;;
33836;SDS011;20140;49.356;8.812;2023-10-19T00:54:35;18.02;;;11.07;;
33836;SDS011;20140;49.356;8.812;2023-10-19T00:57:16;17.58;;;11.43;;
33836;SDS011;20140;49.356;8.812;2023-10-19T00:59:46;19.50;;;10.73;;
33836;SDS011;20140;49.356;8.812;2023-10-19T01:02:18;16.83;;;11.50;;
33836;SDS011;20140;49.356;8.812;2023-10-19T01:04:51;16.63;;;12.27;;
33836;SDS011;20140;49.356;8.812;2023-10-19T01:07:21;14.80;;;10.88;;
33836;SDS011;20140;49.356;8.812;2023-10-19T01:10:09;17.10;;;11.07;;
33836;SDS011;20140;49.356;8.812;2023-10-19T01:12:48;13.85;;;9.32;;
33836;SDS011;20140;49.356;8.812;2023-10-19T01:15:17;14.50;;;9.95;;
33836;SDS011;20140;49.356;8.812;2023-10-19T01:17:45;15.13;;;10.10;;
33836;SDS011;20140;49.356;8.812;2023-10-19T01:20:21;13.57;;;10.03;;
33836;SDS011;20140;49.356;8.812;2023-10-19T01:23:08;14.60;;;9.57;;
33836;SDS011;20140;49.356;8.812;2023-10-19T01:25:43;15.13;;;10.43;;
33836;SDS011;20140;49.356;8.812;2023-10-19T01:28:25;15.48;;;9.80;;
33836;SDS011;20140;49.356;8.812;2023-10-19T01:31:08;16.63;;;10.35;;
33836;SDS011;20140;49.356;8.812;2023-10-19T01:33:40;14.48;;;9.85;;
33836;SDS011;20140;49.356;8.812;2023-10-19T01:36:06;13.23;;;9.52;;
33836;SDS011;20140;49.356;8.812;2023-10-19T01:38:36;17.20;;;10.60;;
33836;SDS011;20140;49.356;8.812;2023-10-19T01:41:05;17.30;;;10.13;;
33836;SDS011;20140;49.356;8.812;2023-10-19T01:43:44;14.75;;;9.77;;
33836;SDS011;20140;49.356;8.812;2023-10-19T01:46:14;15.77;;;11.52;;
33836;SDS011;20140;49.356;8.812;2023-10-19T01:48:56;14.32;;;10.02;;
33836;SDS011;20140;49.356;8.812;2023-10-19T01:51:25;15.23;;;10.27;;
33836;SDS011;20140;49.356;8.812;2023-10-19T01:53:52;16.75;;;9.73;;
33836;SDS011;20140;49.356;8.812;2023-10-19T01:56:20;14.10;;;9.98;;
33836;SDS011;20140;49.356;8.812;2023-10-19T01:58:46;14.75;;;9.63;;
33836;SDS011;20140;49.356;8.812;2023-10-19T02:01:13;15.85;;;9.90;;
33836;SDS011;20140;49.356;8.812;2023-10-19T02:03:45;14.50;;;10.65;;
33836;SDS011;20140;49.356;8.812;2023-10-19T02:06:13;14.70;;;10.77;;
33836;SDS011;20140;49.356;8.812;2023-10-19T02:08:51;15.35;;;10.13;;
33836;SDS011;20140;49.356;8.812;2023-10-19T02:11:25;15.83;;;10.13;;
33836;SDS011;20140;49.356;8.812;2023-10-19T02:13:53;13.30;;;9.57;;
33836;SDS011;20140;49.356;8.812;2023-10-19T02:16:21;14.57;;;10.25;;
33836;SDS011;20140;49.356;8.812;2023-10-19T02:18:47;14.10;;;8.73;;
33836;SDS011;20140;49.356;8.812;2023-10-19T02:21:14;14.48;;;9.65;;
33836;SDS011;20140;49.356;8.812;2023-10-19T02:23:44;14.75;;;10.43;;
33836;SDS011;20140;49.356;8.812;2023-10-19T02:26:09;15.83;;;10.47;;
33836;SDS011;20140;49.356;8.812;2023-10-19T02:28:38;16.27;;;10.68;;
33836;SDS011;20140;49.356;8.812;2023-10-19T02:31:04;13.85;;;10.40;;
33836;SDS011;20140;49.356;8.812;2023-10-19T02:33:40;14.38;;;10.57;;
33836;SDS011;20140;49.356;8.812;2023-10-19T02:36:08;14.90;;;10.40;;
33836;SDS011;20140;49.356;8.812;2023-10-19T02:38:38;16.40;;;10.98;;
33836;SDS011;20140;49.356;8.812;2023-10-19T02:41:14;18.17;;;12.57;;
33836;SDS011;20140;49.356;8.812;2023-10-19T02:43:41;18.13;;;11.20;;
33836;SDS011;20140;49.356;8.812;2023-10-19T02:46:10;18.60;;;11.27;;
33836;SDS011;20140;49.356;8.812;2023-10-19T02:48:38;16.25;;;10.13;;
33836;SDS011;20140;49.356;8.812;2023-10-19T02:51:09;21.38;;;10.70;;
33836;SDS011;20140;49.356;8.812;2023-10-19T02:53:36;15.48;;;10.38;;
33836;SDS011;20140;49.356;8.812;2023-10-19T02:56:11;15.82;;;10.43;;
33836;SDS011;20140;49.356;8.812;2023-10-19T02:58:45;13.23;;;9.45;;
33836;SDS011;20140;49.356;8.812;2023-10-19T03:01:14;15.05;;;10.48;;
33836;SDS011;20140;49.356;8.812;2023-10-19T03:03:44;14.40;;;9.77;;
33836;SDS011;20140;49.356;8.812;2023-10-19T03:06:11;11.02;;;8.32;;
33836;SDS011;20140;49.356;8.812;2023-10-19T03:08:36;16.90;;;11.53;;
33836;SDS011;20140;49.356;8.812;2023-10-19T03:11:02;13.15;;;9.40;;
33836;SDS011;20140;49.356;8.812;2023-10-19T03:13:32;14.73;;;10.40;;
33836;SDS011;20140;49.356;8.812;2023-10-19T03:15:58;15.00;;;10.13;;
33836;SDS011;20140;49.356;8.812;2023-10-19T03:18:26;15.47;;;9.73;;
33836;SDS011;20140;49.356;8.812;2023-10-19T03:20:53;16.42;;;10.55;;
33836;SDS011;20140;49.356;8.812;2023-10-19T03:23:19;14.25;;;10.20;;
33836;SDS011;20140;49.356;8.812;2023-10-19T03:25:45;17.23;;;11.45;;
33836;SDS011;20140;49.356;8.812;2023-10-19T03:28:34;16.13;;;11.00;;
33836;SDS011;20140;49.356;8.812;2023-10-19T03:31:00;15.98;;;10.10;;
33836;SDS011;20140;49.356;8.812;2023-10-19T03:33:26;14.90;;;10.40;;
33836;SDS011;20140;49.356;8.812;2023-10-19T03:35:53;12.67;;;9.77;;
33836;SDS011;20140;49.356;8.812;2023-10-19T03:38:19;17.45;;;10.07;;
33836;SDS011;20140;49.356;8.812;2023-10-19T03:40:47;15.32;;;10.10;;
33836;SDS011;20140;49.356;8.812;2023-10-19T03:43:17;14.93;;;9.77;;
33836;SDS011;20140;49.356;8.812;2023-10-19T03:45:46;18.85;;;11.13;;
33836;SDS011;20140;49.356;8.812;2023-10-19T03:48:17;17.17;;;11.57;;
33836;SDS011;20140;49.356;8.812;2023-10-19T03:50:49;17.60;;;11.55;;
33836;SDS011;20140;49.356;8.812;2023-10-19T03:53:17;16.05;;;11.00;;
33836;SDS011;20140;49.356;8.812;2023-10-19T03:55:43;14.63;;;10.25;;
33836;SDS011;20140;49.356;8.812;2023-10-19T03:58:09;17.15;;;10.43;;
33836;SDS011;20140;49.356;8.812;2023-10-19T04:00:37;17.80;;;10.05;;
33836;SDS011;20140;49.356;8.812;2023-10-19T04:03:02;17.87;;;9.93;;
33836;SDS011;20140;49.356;8.812;2023-10-19T04:05:28;15.95;;;10.05;;
33836;SDS011;20140;49.356;8.812;2023-10-19T04:07:53;14.57;;;10.60;;
33836;SDS011;20140;49.356;8.812;2023-10-19T04:10:37;15.15;;;9.60;;
33836;SDS011;20140;49.356;8.812;2023-10-19T04:13:03;14.23;;;10.10;;
33836;SDS011;20140;49.356;8.812;2023-10-19T04:15:30;13.32;;;9.10;;
33836;SDS011;20140;49.356;8.812;2023-10-19T04:17:59;22.30;;;10.65;;
33836;SDS011;20140;49.356;8.812;2023-10-19T04:20:25;17.08;;;11.02;;
33836;SDS011;20140;49.356;8.812;2023-10-19T04:22:50;15.60;;;10.30;;
33836;SDS011;20140;49.356;8.812;2023-10-19T04:25:16;13.87;;;9.80;;
33836;SDS011;20140;49.356;8.812;2023-10-19T04:27:50;16.98;;;10.88;;
33836;SDS011;20140;49.356;8.812;2023-10-19T04:30:16;15.15;;;9.27;;
33836;SDS011;20140;49.356;8.812;2023-10-19T04:32:43;14.95;;;9.35;;
33836;SDS011;20140;49.356;8.812;2023-10-19T04:35:09;11.18;;;8.35;;
33836;SDS011;20140;49.356;8.812;2023-10-19T04:37:36;17.30;;;10.80;;
33836;SDS011;20140;49.356;8.812;2023-10-19T04:40:02;16.10;;;9.47;;
33836;SDS011;20140;49.356;8.812;2023-10-19T04:42:28;13.35;;;8.60;;
33836;SDS011;20140;49.356;8.812;2023-10-19T04:44:54;12.57;;;8.80;;
33836;SDS011;20140;49.356;8.812;2023-10-19T04:47:20;12.18;;;8.85;;
33836;SDS011;20140;49.356;8.812;2023-10-19T04:49:47;11.93;;;8.63;;
33836;SDS011;20140;49.356;8.812;2023-10-19T04:52:12;11.33;;;7.57;;
33836;SDS011;20140;49.356;8.812;2023-10-19T04:54:38;18.53;;;9.27;;
33836;SDS011;20140;49.356;8.812;2023-10-19T04:57:03;13.73;;;8.93;;
33836;SDS011;20140;49.356;8.812;2023-10-19T04:59:29;16.98;;;9.25;;
33836;SDS011;20140;49.356;8.812;2023-10-19T05:01:58;12.98;;;9.35;;
33836;SDS011;20140;49.356;8.812;2023-10-19T05:04:26;15.63;;;9.73;;
33836;SDS011;20140;49.356;8.812;2023-10-19T05:06:54;14.48;;;9.30;;
33836;SDS011;20140;49.356;8.812;2023-10-19T05:09:20;17.50;;;9.43;;
33836;SDS011;20140;49.356;8.812;2023-10-19T05:11:46;15.65;;;8.13;;
33836;SDS011;20140;49.356;8.812;2023-10-19T05:14:12;16.67;;;9.67;;
33836;SDS011;20140;49.356;8.812;2023-10-19T05:16:41;15.07;;;9.40;;
33836;SDS011;20140;49.356;8.812;2023-10-19T05:19:07;15.00;;;9.67;;
33836;SDS011;20140;49.356;8.812;2023-10-19T05:21:32;14.10;;;9.20;;
33836;SDS011;20140;49.356;8.812;2023-10-19T05:23:58;14.85;;;8.93;;
33836;SDS011;20140;49.356;8.812;2023-10-19T05:26:25;12.98;;;8.30;;
33836;SDS011;20140;49.356;8.812;2023-10-19T05:28:51;15.20;;;8.35;;
33836;SDS011;20140;49.356;8.812;2023-10-19T05:31:17;17.25;;;10.98;;
33836;SDS011;20140;49.356;8.812;2023-10-19T05:33:42;15.90;;;11.70;;
33836;SDS011;20140;49.356;8.812;2023-10-19T05:36:08;15.45;;;9.70;;
33836;SDS011;20140;49.356;8.812;2023-10-19T05:38:34;15.73;;;9.25;;
33836;SDS011;20140;49.356;8.812;2023-10-19T05:40:59;14.30;;;9.63;;
33836;SDS011;20140;49.356;8.812;2023-10-19T05:43:25;16.13;;;9.77;;
33836;SDS011;20140;49.356;8.812;2023-10-19T05:45:51;17.07;;;10.53;;
33836;SDS011;20140;49.356;8.812;2023-10-19T05:48:17;12.80;;;8.63;;
33836;SDS011;20140;49.356;8.812;2023-10-19T05:50:42;13.35;;;9.43;;
33836;SDS011;20140;49.356;8.812;2023-10-19T05:53:08;13.48;;;9.30;;
33836;SDS011;20140;49.356;8.812;2023-10-19T05:55:34;11.20;;;8.90;;
33836;SDS011;20140;49.356;8.812;2023-10-19T05:58:01;14.90;;;10.23;;
33836;SDS011;20140;49.356;8.812;2023-10-19T06:00:29;14.98;;;9.45;;
33836;SDS011;20140;49.356;8.812;2023-10-19T06:02:55;12.27;;;9.23;;
33836;SDS011;20140;49.356;8.812;2023-10-19T06:05:21;13.38;;;9.00;;
33836;SDS011;20140;49.356;8.812;2023-10-19T06:07:47;14.35;;;8.85;;
33836;SDS011;20140;49.356;8.812;2023-10-19T06:10:15;12.27;;;8.60;;
33836;SDS011;20140;49.356;8.812;2023-10-19T06:12:42;16.50;;;9.77;;
33836;SDS011;20140;49.356;8.812;2023-10-19T06:15:13;14.07;;;9.35;;
33836;SDS011;20140;49.356;8.812;2023-10-19T06:17:42;11.27;;;8.40;;
33836;SDS011;20140;49.356;8.812;2023-10-19T06:20:08;13.10;;;8.50;;
33836;SDS011;20140;49.356;8.812;2023-10-19T06:23:07;14.40;;;9.20;;
33836;SDS011;20140;49.356;8.812;2023-10-19T06:25:33;15.07;;;10.17;;
33836;SDS011;20140;49.356;8.812;2023-10-19T06:28:02;14.05;;;8.98;;
33836;SDS011;20140;49.356;8.812;2023-10-19T06:30:28;15.18;;;9.63;;
33836;SDS011;20140;49.356;8.812;2023-10-19T06:32:55;13.75;;;8.93;;
33836;SDS011;20140;49.356;8.812;2023-10-19T06:35:25;12.10;;;8.40;;
33836;SDS011;20140;49.356;8.812;2023-10-19T06:37:52;15.07;;;10.73;;
33836;SDS011;20140;49.356;8.812;2023-10-19T06:40:20;17.30;;;8.80;;
33836;SDS011;20140;49.356;8.812;2023-10-19T06:42:47;16.25;;;9.73;;
33836;SDS011;20140;49.356;8.812;2023-10-19T06:45:14;12.38;;;8.63;;
33836;SDS011;20140;49.356;8.812;2023-10-19T06:47:43;18.33;;;10.53;;
33836;SDS011;20140;49.356;8.812;2023-10-19T06:50:11;18.30;;;10.17;;
33836;SDS011;20140;49.356;8.812;2023-10-19T06:52:40;21.88;;;11.00;;
33836;SDS011;20140;49.356;8.812;2023-10-19T06:55:07;18.90;;;10.07;;
33836;SDS011;20140;49.356;8.812;2023-10-19T06:57:45;18.50;;;10.75;;
33836;SDS011;20140;49.356;8.812;2023-10-19T07:00:15;16.02;;;9.82;;
33836;SDS011;20140;49.356;8.812;2023-10-19T07:02:45;15.55;;;9.40;;
33836;SDS011;20140;49.356;8.812;2023-10-19T07:05:12;14.17;;;8.77;;
33836;SDS011;20140;49.356;8.812;2023-10-19T07:07:42;13.65;;;9.18;;
33836;SDS011;20140;49.356;8.812;2023-10-19T07:10:08;14.85;;;9.55;;
33836;SDS011;20140;49.356;8.812;2023-10-19T07:12:35;16.80;;;10.02;;
33836;SDS011;20140;49.356;8.812;2023-10-19T07:15:02;16.92;;;9.70;;
33836;SDS011;20140;49.356;8.812;2023-10-19T07:17:32;16.97;;;9.50;;
33836;SDS011;20140;49.356;8.812;2023-10-19T07:19:58;15.23;;;9.77;;
33836;SDS011;20140;49.356;8.812;2023-10-19T07:22:24;14.43;;;10.25;;
33836;SDS011;20140;49.356;8.812;2023-10-19T07:24:50;14.15;;;8.95;;
33836;SDS011;20140;49.356;8.812;2023-10-19T07:27:16;14.43;;;8.68;;
33836;SDS011;20140;49.356;8.812;2023-10-19T07:29:45;12.03;;;9.60;;
33836;SDS011;20140;49.356;8.812;2023-10-19T07:32:10;14.00;;;9.57;;
33836;SDS011;20140;49.356;8.812;2023-10-19T07:34:41;16.65;;;9.75;;
33836;SDS011;20140;49.356;8.812;2023-10-19T07:37:09;16.50;;;10.38;;
33836;SDS011;20140;49.356;8.812;2023-10-19T07:39:40;12.43;;;9.05;;
33836;SDS011;20140;49.356;8.812;2023-10-19T07:42:17;15.17;;;9.80;;
33836;SDS011;20140;49.356;8.812;2023-10-19T07:44:42;15.10;;;9.23;;
33836;SDS011;20140;49.356;8.812;2023-10-19T07:47:09;13.40;;;8.68;;
33836;SDS011;20140;49.356;8.812;2023-10-19T07:49:37;12.50;;;8.07;;
33836;SDS011;20140;49.356;8.812;2023-10-19T07:52:03;13.18;;;8.70;;
33836;SDS011;20140;49.356;8.812;2023-10-19T07:54:31;13.17;;;9.20;;
33836;SDS011;20140;49.356;8.812;2023-10-19T07:56:57;13.48;;;8.80;;
33836;SDS011;20140;49.356;8.812;2023-10-19T07:59:23;14.10;;;9.10;;
33836;SDS011;20140;49.356;8.812;2023-10-19T08:01:48;16.17;;;9.73;;
33836;SDS011;20140;49.356;8.812;2023-10-19T08:04:14;12.87;;;8.70;;
33836;SDS011;20140;49.356;8.812;2023-10-19T08:06:39;11.53;;;8.33;;
33836;SDS011;20140;49.356;8.812;2023-10-19T08:09:05;11.00;;;8.18;;
33836;SDS011;20140;49.356;8.812;2023-10-19T08:11:31;12.70;;;8.73;;
33836;SDS011;20140;49.356;8.812;2023-10-19T08:13:56;13.93;;;7.87;;
33836;SDS011;20140;49.356;8.812;2023-10-19T08:16:22;9.88;;;7.18;;
33836;SDS011;20140;49.356;8.812;2023-10-19T08:18:49;13.33;;;8.27;;
33836;SDS011;20140;49.356;8.812;2023-10-19T08:21:14;12.60;;;8.40;;
33836;SDS011;20140;49.356;8.812;2023-10-19T08:23:40;14.07;;;8.80;;
33836;SDS011;20140;49.356;8.812;2023-10-19T08:26:06;14.25;;;9.13;;
33836;SDS011;20140;49.356;8.812;2023-10-19T08:28:31;14.63;;;9.27;;
33836;SDS011;20140;49.356;8.812;2023-10-19T08:30:57;13.48;;;8.85;;
33836;SDS011;20140;49.356;8.812;2023-10-19T08:33:25;10.93;;;8.18;;
33836;SDS011;20140;49.356;8.812;2023-10-19T08:35:55;13.20;;;8.95;;
33836;SDS011;20140;49.356;8.812;2023-10-19T08:38:21;14.43;;;9.73;;
33836;SDS011;20140;49.356;8.812;2023-10-19T08:40:48;15.48;;;10.20;;
33836;SDS011;20140;49.356;8.812;2023-10-19T08:43:15;16.92;;;10.85;;
33836;SDS011;20140;49.356;8.812;2023-10-19T08:45:43;15.52;;;10.80;;
33836;SDS011;20140;49.356;8.812;2023-10-19T08:48:09;13.77;;;9.07;;
33836;SDS011;20140;49.356;8.812;2023-10-19T08:50:36;15.77;;;9.77;;
33836;SDS011;20140;49.356;8.812;2023-10-19T08:53:06;15.43;;;9.50;;
33836;SDS011;20140;49.356;8.812;2023-10-19T08:55:39;14.15;;;8.82;;
33836;SDS011;20140;49.356;8.812;2023-10-19T08:58:04;12.30;;;8.87;;
33836;SDS011;20140;49.356;8.812;2023-10-19T09:00:42;13.70;;;9.27;;
33836;SDS011;20140;49.356;8.812;2023-10-19T09:03:18;10.27;;;8.23;;
33836;SDS011;20140;49.356;8.812;2023-10-19T09:05:44;12.60;;;8.73;;
33836;SDS011;20140;49.356;8.812;2023-10-19T09:08:13;11.40;;;8.20;;
33836;SDS011;20140;49.356;8.812;2023-10-19T09:10:40;11.48;;;8.00;;
33836;SDS011;20140;49.356;8.812;2023-10-19T09:13:10;11.70;;;8.13;;
33836;SDS011;20140;49.356;8.812;2023-10-19T09:15:38;13.47;;;8.33;;
33836;SDS011;20140;49.356;8.812;2023-10-19T09:18:17;11.88;;;8.32;;
33836;SDS011;20140;49.356;8.812;2023-10-19T09:20:45;12.90;;;8.85;;
33836;SDS011;20140;49.356;8.812;2023-10-19T09:23:25;12.15;;;8.40;;
33836;SDS011;20140;49.356;8.812;2023-10-19T09:25:57;12.17;;;8.77;;
33836;SDS011;20140;49.356;8.812;2023-10-19T09:28:28;13.90;;;9.37;;
33836;SDS011;20140;49.356;8.812;2023-10-19T09:30:53;13.37;;;9.13;;
33836;SDS011;20140;49.356;8.812;2023-10-19T09:33:20;12.48;;;8.80;;
33836;SDS011;20140;49.356;8.812;2023-10-19T09:35:47;11.07;;;8.48;;
33836;SDS011;20140;49.356;8.812;2023-10-19T09:38:17;10.02;;;7.95;;
33836;SDS011;20140;49.356;8.812;2023-10-19T09:40:50;10.23;;;7.77;;
33836;SDS011;20140;49.356;8.812;2023-10-19T09:43:21;13.90;;;8.77;;
33836;SDS011;20140;49.356;8.812;2023-10-19T09:46:07;11.77;;;8.57;;
33836;SDS011;20140;49.356;8.812;2023-10-19T09:48:38;10.85;;;7.85;;
33836;SDS011;20140;49.356;8.812;2023-10-19T09:51:07;13.38;;;8.88;;
33836;SDS011;20140;49.356;8.812;2023-10-19T09:53:34;10.13;;;7.95;;
33836;SDS011;20140;49.356;8.812;2023-10-19T09:56:00;11.83;;;7.67;;
33836;SDS011;20140;49.356;8.812;2023-10-19T09:58:31;9.43;;;7.60;;
33836;SDS011;20140;49.356;8.812;2023-10-19T10:01:02;7.68;;;6.30;;
33836;SDS011;20140;49.356;8.812;2023-10-19T10:06:10;12.02;;;6.35;;
33836;SDS011;20140;49.356;8.812;2023-10-19T10:08:40;10.23;;;6.18;;
33836;SDS011;20140;49.356;8.812;2023-10-19T10:11:17;7.20;;;5.70;;
33836;SDS011;20140;49.356;8.812;2023-10-19T10:13:46;8.20;;;5.72;;
33836;SDS011;20140;49.356;8.812;2023-10-19T10:16:16;8.25;;;5.65;;
33836;SDS011;20140;49.356;8.812;2023-10-19T10:18:42;8.53;;;5.90;;
33836;SDS011;20140;49.356;8.812;2023-10-19T10:21:12;8.02;;;5.78;;
33836;SDS011;20140;49.356;8.812;2023-10-19T10:23:44;7.93;;;5.97;;
33836;SDS011;20140;49.356;8.812;2023-10-19T10:26:12;7.67;;;5.17;;
33836;SDS011;20140;49.356;8.812;2023-10-19T10:28:39;9.68;;;6.15;;
33836;SDS011;20140;49.356;8.812;2023-10-19T10:31:18;6.13;;;5.13;;
33836;SDS011;20140;49.356;8.812;2023-10-19T10:33:50;10.20;;;5.72;;
33836;SDS011;20140;49.356;8.812;2023-10-19T10:36:19;8.40;;;4.90;;
33836;SDS011;20140;49.356;8.812;2023-10-19T10:38:49;7.93;;;5.55;;
33836;SDS011;20140;49.356;8.812;2023-10-19T10:41:19;6.68;;;5.38;;
33836;SDS011;20140;49.356;8.812;2023-10-19T10:43:49;7.15;;;4.70;;
33836;SDS011;20140;49.356;8.812;2023-10-19T10:46:18;8.50;;;4.90;;
33836;SDS011;20140;49.356;8.812;2023-10-19T10:48:45;6.57;;;4.63;;
33836;SDS011;20140;49.356;8.812;2023-10-19T10:53:42;6.45;;;4.55;;
33836;SDS011;20140;49.356;8.812;2023-10-19T10:56:08;6.77;;;4.23;;
33836;SDS011;20140;49.356;8.812;2023-10-19T10:58:34;6.47;;;4.70;;
33836;SDS011;20140;49.356;8.812;2023-10-19T11:00:59;4.93;;;4.40;;
33836;SDS011;20140;49.356;8.812;2023-10-19T11:03:25;6.10;;;4.03;;
33836;SDS011;20140;49.356;8.812;2023-10-19T11:05:55;5.38;;;3.80;;
33836;SDS011;20140;49.356;8.812;2023-10-19T11:08:27;4.53;;;3.80;;
33836;SDS011;20140;49.356;8.812;2023-10-19T11:10:52;4.50;;;3.88;;
33836;SDS011;20140;49.356;8.812;2023-10-19T11:13:23;5.97;;;3.78;;
33836;SDS011;20140;49.356;8.812;2023-10-19T11:15:50;6.85;;;3.92;;
33836;SDS011;20140;49.356;8.812;2023-10-19T11:18:34;5.78;;;3.85;;
33836;SDS011;20140;49.356;8.812;2023-10-19T11:21:08;4.60;;;3.63;;
33836;SDS011;20140;49.356;8.812;2023-10-19T11:23:38;6.43;;;4.30;;
33836;SDS011;20140;49.356;8.812;2023-10-19T11:26:04;7.53;;;4.47;;
33836;SDS011;20140;49.356;8.812;2023-10-19T11:28:30;6.50;;;4.38;;
33836;SDS011;20140;49.356;8.812;2023-10-19T11:31:13;5.38;;;3.85;;
33836;SDS011;20140;49.356;8.812;2023-10-19T11:33:48;6.15;;;4.30;;
33836;SDS011;20140;49.356;8.812;2023-10-19T11:36:15;5.63;;;3.80;;
33836;SDS011;20140;49.356;8.812;2023-10-19T11:38:43;4.82;;;4.20;;
33836;SDS011;20140;49.356;8.812;2023-10-19T11:41:11;5.15;;;4.22;;
33836;SDS011;20140;49.356;8.812;2023-10-19T11:43:38;5.22;;;3.92;;
33836;SDS011;20140;49.356;8.812;2023-10-19T11:46:05;4.77;;;3.50;;
33836;SDS011;20140;49.356;8.812;2023-10-19T11:48:32;5.10;;;3.73;;
33836;SDS011;20140;49.356;8.812;2023-10-19T11:50:58;5.63;;;4.60;;
33836;SDS011;20140;49.356;8.812;2023-10-19T11:53:25;5.70;;;4.00;;
33836;SDS011;20140;49.356;8.812;2023-10-19T11:55:50;6.57;;;4.88;;
33836;SDS011;20140;49.356;8.812;2023-10-19T11:58:16;11.77;;;4.50;;
33836;SDS011;20140;49.356;8.812;2023-10-19T12:00:42;7.80;;;4.45;;
33836;SDS011;20140;49.356;8.812;2023-10-19T12:03:09;6.05;;;4.38;;
33836;SDS011;20140;49.356;8.812;2023-10-19T12:05:35;9.50;;;4.88;;
33836;SDS011;20140;49.356;8.812;2023-10-19T12:08:02;7.17;;;4.03;;
33836;SDS011;20140;49.356;8.812;2023-10-19T12:10:28;6.77;;;4.50;;
33836;SDS011;20140;49.356;8.812;2023-10-19T12:13:03;5.47;;;4.10;;
33836;SDS011;20140;49.356;8.812;2023-10-19T12:15:31;6.20;;;4.80;;
33836;SDS011;20140;49.356;8.812;2023-10-19T12:17:57;8.52;;;5.80;;
33836;SDS011;20140;49.356;8.812;2023-10-19T12:20:23;8.15;;;4.82;;
33836;SDS011;20140;49.356;8.812;2023-10-19T12:22:49;6.00;;;5.10;;
33836;SDS011;20140;49.356;8.812;2023-10-19T12:25:18;8.70;;;5.15;;
33836;SDS011;20140;49.356;8.812;2023-10-19T12:27:45;6.57;;;5.13;;
33836;SDS011;20140;49.356;8.812;2023-10-19T12:30:10;6.43;;;5.10;;
33836;SDS011;20140;49.356;8.812;2023-10-19T12:32:45;7.10;;;5.45;;
33836;SDS011;20140;49.356;8.812;2023-10-19T12:35:14;7.72;;;5.63;;
33836;SDS011;20140;49.356;8.812;2023-10-19T12:37:40;8.60;;;5.20;;
33836;SDS011;20140;49.356;8.812;2023-10-19T12:40:12;7.03;;;5.43;;
33836;SDS011;20140;49.356;8.812;2023-10-19T12:42:58;7.95;;;5.72;;
33836;SDS011;20140;49.356;8.812;2023-10-19T12:45:28;8.73;;;5.57;;
33836;SDS011;20140;49.356;8.812;2023-10-19T12:47:54;8.20;;;5.40;;
33836;SDS011;20140;49.356;8.812;2023-10-19T12:50:19;7.53;;;5.37;;
33836;SDS011;20140;49.356;8.812;2023-10-19T12:52:49;9.43;;;5.43;;
33836;SDS011;20140;49.356;8.812;2023-10-19T12:55:15;7.28;;;5.47;;
33836;SDS011;20140;49.356;8.812;2023-10-19T12:57:42;9.32;;;5.32;;
33836;SDS011;20140;49.356;8.812;2023-10-19T13:00:08;7.57;;;4.63;;
33836;SDS011;20140;49.356;8.812;2023-10-19T13:02:49;9.15;;;5.60;;
33836;SDS011;20140;49.356;8.812;2023-10-19T13:05:15;7.22;;;5.72;;
33836;SDS011;20140;49.356;8.812;2023-10-19T13:07:43;5.95;;;4.45;;
33836;SDS011;20140;49.356;8.812;2023-10-19T13:10:09;6.57;;;5.18;;
33836;SDS011;20140;49.356;8.812;2023-10-19T13:12:36;7.40;;;5.57;;
33836;SDS011;20140;49.356;8.812;2023-10-19T13:15:02;7.30;;;5.30;;
33836;SDS011;20140;49.356;8.812;2023-10-19T13:17:32;7.25;;;5.22;;
33836;SDS011;20140;49.356;8.812;2023-10-19T13:19:58;7.97;;;5.43;;
33836;SDS011;20140;49.356;8.812;2023-10-19T13:22:26;8.90;;;5.13;;
33836;SDS011;20140;49.356;8.812;2023-10-19T13:24:51;7.72;;;5.80;;
33836;SDS011;20140;49.356;8.812;2023-10-19T13:27:17;6.27;;;5.30;;
33836;SDS011;20140;49.356;8.812;2023-10-19T13:29:44;8.15;;;6.90;;
33836;SDS011;20140;49.356;8.812;2023-10-19T13:32:11;8.20;;;5.63;;
33836;SDS011;20140;49.356;8.812;2023-10-19T13:34:37;9.60;;;6.10;;
33836;SDS011;20140;49.356;8.812;2023-10-19T13:37:05;10.52;;;6.53;;
33836;SDS011;20140;49.356;8.812;2023-10-19T13:39:33;9.73;;;7.35;;
33836;SDS011;20140;49.356;8.812;2023-10-19T13:41:58;6.60;;;5.57;;
33836;SDS011;20140;49.356;8.812;2023-10-19T13:44:24;6.97;;;5.07;;
33836;SDS011;20140;49.356;8.812;2023-10-19T13:46:51;9.13;;;6.03;;
33836;SDS011;20140;49.356;8.812;2023-10-19T13:49:19;6.63;;;5.35;;
33836;SDS011;20140;49.356;8.812;2023-10-19T13:51:47;8.25;;;5.35;;
33836;SDS011;20140;49.356;8.812;2023-10-19T13:54:13;7.73;;;5.17;;
33836;SDS011;20140;49.356;8.812;2023-10-19T13:56:38;7.20;;;5.37;;
33836;SDS011;20140;49.356;8.812;2023-10-19T13:59:04;8.60;;;4.90;;
33836;SDS011;20140;49.356;8.812;2023-10-19T14:01:30;7.63;;;5.97;;
33836;SDS011;20140;49.356;8.812;2023-10-19T14:03:55;7.13;;;5.10;;
33836;SDS011;20140;49.356;8.812;2023-10-19T14:06:21;8.77;;;5.43;;
33836;SDS011;20140;49.356;8.812;2023-10-19T14:08:47;6.20;;;5.20;;
33836;SDS011;20140;49.356;8.812;2023-10-19T14:11:12;7.23;;;5.33;;
33836;SDS011;20140;49.356;8.812;2023-10-19T14:13:39;6.20;;;4.68;;
33836;SDS011;20140;49.356;8.812;2023-10-19T14:16:07;6.33;;;5.30;;
33836;SDS011;20140;49.356;8.812;2023-10-19T14:18:33;8.52;;;5.57;;
33836;SDS011;20140;49.356;8.812;2023-10-19T14:20:59;6.37;;;4.40;;
33836;SDS011;20140;49.356;8.812;2023-10-19T14:23:25;6.18;;;5.22;;
33836;SDS011;20140;49.356;8.812;2023-10-19T14:25:52;5.28;;;4.38;;
33836;SDS011;20140;49.356;8.812;2023-10-19T14:28:18;6.77;;;5.43;;
33836;SDS011;20140;49.356;8.812;2023-10-19T14:30:43;11.47;;;5.50;;
33836;SDS011;20140;49.356;8.812;2023-10-19T14:33:10;25.13;;;12.52;;
33836;SDS011;20140;49.356;8.812;2023-10-19T14:35:36;7.90;;;6.07;;
33836;SDS011;20140;49.356;8.812;2023-10-19T14:38:06;10.15;;;5.80;;
33836;SDS011;20140;49.356;8.812;2023-10-19T14:40:34;20.67;;;12.10;;
33836;SDS011;20140;49.356;8.812;2023-10-19T14:42:59;9.50;;;6.60;;
33836;SDS011;20140;49.356;8.812;2023-10-19T14:45:26;8.80;;;6.75;;
33836;SDS011;20140;49.356;8.812;2023-10-19T14:47:56;7.93;;;5.97;;
33836;SDS011;20140;49.356;8.812;2023-10-19T14:50:29;7.72;;;5.90;;